sensor_id;sensor_type;location;lat;lon;timestamp;P1;durP1;ratioP1;P2;durP2;ratioP2
77350;SDS011;66420;50.246;14.320;2023-12-04T00:02:27;19.73;;;7.82;;
77350;SDS011;66420;50.246;14.320;2023-12-04T00:05:12;17.58;;;7.97;;
77350;SDS011;66420;50.246;14.320;2023-12-04T00:07:57;17.63;;;8.13;;
77350;SDS011;66420;50.246;14.320;2023-12-04T00:10:42;19.75;;;7.80;;
77350;SDS011;66420;50.246;14.320;2023-12-04T00:13:26;18.05;;;6.72;;
77350;SDS011;66420;50.246;14.320;2023-12-04T00:16:11;20.13;;;8.13;;
77350;SDS011;66420;50.246;14.320;2023-12-04T00:18:56;19.30;;;8.02;;
77350;SDS011;66420;50.246;14.320;2023-12-04T00:21:41;17.50;;;7.35;;
77350;SDS011;66420;50.246;14.320;2023-12-04T00:24:26;17.48;;;7.72;;
77350;SDS011;66420;50.246;14.320;2023-12-04T00:27:11;16.02;;;6.68;;
77350;SDS011;66420;50.246;14.320;2023-12-04T00:29:56;21.60;;;8.63;;
77350;SDS011;66420;50.246;14.320;2023-12-04T00:32:41;19.92;;;8.77;;
77350;SDS011;66420;50.246;14.320;2023-12-04T00:35:26;15.20;;;7.35;;
77350;SDS011;66420;50.246;14.320;2023-12-04T00:38:11;23.05;;;8.88;;
77350;SDS011;66420;50.246;14.320;2023-12-04T00:40:56;19.55;;;8.48;;
77350;SDS011;66420;50.246;14.320;2023-12-04T00:43:40;18.13;;;8.02;;
77350;SDS011;66420;50.246;14.320;2023-12-04T00:46:25;17.35;;;7.68;;
77350;SDS011;66420;50.246;14.320;2023-12-04T00:49:10;22.67;;;8.52;;
77350;SDS011;66420;50.246;14.320;2023-12-04T00:51:55;16.48;;;6.70;;
77350;SDS011;66420;50.246;14.320;2023-12-04T00:54:40;22.00;;;8.00;;
77350;SDS011;66420;50.246;14.320;2023-12-04T00:57:27;17.63;;;7.65;;
77350;SDS011;66420;50.246;14.320;2023-12-04T01:00:12;17.98;;;7.85;;
77350;SDS011;66420;50.246;14.320;2023-12-04T01:02:56;18.05;;;7.25;;
77350;SDS011;66420;50.246;14.320;2023-12-04T01:05:41;20.05;;;7.50;;
77350;SDS011;66420;50.246;14.320;2023-12-04T01:08:26;17.98;;;7.70;;
77350;SDS011;66420;50.246;14.320;2023-12-04T01:11:11;17.63;;;7.43;;
77350;SDS011;66420;50.246;14.320;2023-12-04T01:13:56;18.85;;;7.88;;
77350;SDS011;66420;50.246;14.320;2023-12-04T01:16:41;19.27;;;7.68;;
77350;SDS011;66420;50.246;14.320;2023-12-04T01:19:26;16.20;;;6.82;;
77350;SDS011;66420;50.246;14.320;2023-12-04T01:22:11;21.27;;;8.60;;
77350;SDS011;66420;50.246;14.320;2023-12-04T01:24:56;23.15;;;8.93;;
77350;SDS011;66420;50.246;14.320;2023-12-04T01:27:41;18.92;;;7.88;;
77350;SDS011;66420;50.246;14.320;2023-12-04T01:30:26;18.02;;;8.10;;
77350;SDS011;66420;50.246;14.320;2023-12-04T01:33:10;25.42;;;9.73;;
77350;SDS011;66420;50.246;14.320;2023-12-04T01:35:55;20.13;;;8.23;;
77350;SDS011;66420;50.246;14.320;2023-12-04T01:38:40;23.88;;;8.48;;
77350;SDS011;66420;50.246;14.320;2023-12-04T01:41:24;26.73;;;8.70;;
77350;SDS011;66420;50.246;14.320;2023-12-04T01:44:09;24.10;;;8.60;;
77350;SDS011;66420;50.246;14.320;2023-12-04T01:46:54;23.15;;;8.27;;
77350;SDS011;66420;50.246;14.320;2023-12-04T01:49:40;19.33;;;8.30;;
77350;SDS011;66420;50.246;14.320;2023-12-04T01:52:25;19.48;;;8.35;;
77350;SDS011;66420;50.246;14.320;2023-12-04T01:55:10;17.45;;;7.97;;
77350;SDS011;66420;50.246;14.320;2023-12-04T01:57:55;21.35;;;7.93;;
77350;SDS011;66420;50.246;14.320;2023-12-04T02:00:40;22.08;;;8.68;;
77350;SDS011;66420;50.246;14.320;2023-12-04T02:03:25;23.42;;;7.70;;
77350;SDS011;66420;50.246;14.320;2023-12-04T02:06:10;24.77;;;8.60;;
77350;SDS011;66420;50.246;14.320;2023-12-04T02:08:56;21.42;;;8.02;;
77350;SDS011;66420;50.246;14.320;2023-12-04T02:11:41;27.85;;;9.70;;
77350;SDS011;66420;50.246;14.320;2023-12-04T02:14:26;20.60;;;7.60;;
77350;SDS011;66420;50.246;14.320;2023-12-04T02:17:11;20.55;;;7.97;;
77350;SDS011;66420;50.246;14.320;2023-12-04T02:19:57;25.58;;;8.95;;
77350;SDS011;66420;50.246;14.320;2023-12-04T02:22:43;18.60;;;7.82;;
77350;SDS011;66420;50.246;14.320;2023-12-04T02:25:28;19.02;;;7.90;;
77350;SDS011;66420;50.246;14.320;2023-12-04T02:28:14;26.23;;;9.50;;
77350;SDS011;66420;50.246;14.320;2023-12-04T02:31:02;17.42;;;7.05;;
77350;SDS011;66420;50.246;14.320;2023-12-04T02:33:49;22.88;;;7.88;;
77350;SDS011;66420;50.246;14.320;2023-12-04T02:36:37;20.27;;;8.10;;
77350;SDS011;66420;50.246;14.320;2023-12-04T02:39:23;22.17;;;7.70;;
77350;SDS011;66420;50.246;14.320;2023-12-04T02:42:08;18.40;;;7.10;;
77350;SDS011;66420;50.246;14.320;2023-12-04T02:44:53;18.30;;;7.68;;
77350;SDS011;66420;50.246;14.320;2023-12-04T02:47:37;20.73;;;7.38;;
77350;SDS011;66420;50.246;14.320;2023-12-04T02:50:22;19.45;;;7.72;;
77350;SDS011;66420;50.246;14.320;2023-12-04T02:53:07;19.98;;;8.30;;
77350;SDS011;66420;50.246;14.320;2023-12-04T02:55:52;18.30;;;7.70;;
77350;SDS011;66420;50.246;14.320;2023-12-04T02:58:37;18.70;;;7.05;;
77350;SDS011;66420;50.246;14.320;2023-12-04T03:01:22;21.63;;;8.90;;
77350;SDS011;66420;50.246;14.320;2023-12-04T03:04:07;17.63;;;7.65;;
77350;SDS011;66420;50.246;14.320;2023-12-04T03:06:52;16.92;;;7.32;;
77350;SDS011;66420;50.246;14.320;2023-12-04T03:09:36;18.88;;;7.18;;
77350;SDS011;66420;50.246;14.320;2023-12-04T03:12:21;23.98;;;9.07;;
77350;SDS011;66420;50.246;14.320;2023-12-04T03:15:06;18.92;;;8.10;;
77350;SDS011;66420;50.246;14.320;2023-12-04T03:17:51;19.00;;;8.35;;
77350;SDS011;66420;50.246;14.320;2023-12-04T03:20:36;17.70;;;7.97;;
77350;SDS011;66420;50.246;14.320;2023-12-04T03:23:21;19.95;;;7.97;;
77350;SDS011;66420;50.246;14.320;2023-12-04T03:26:05;13.80;;;6.30;;
77350;SDS011;66420;50.246;14.320;2023-12-04T03:28:50;16.90;;;6.65;;
77350;SDS011;66420;50.246;14.320;2023-12-04T03:31:35;17.00;;;6.93;;
77350;SDS011;66420;50.246;14.320;2023-12-04T03:34:20;21.83;;;7.93;;
77350;SDS011;66420;50.246;14.320;2023-12-04T03:37:05;19.52;;;7.47;;
77350;SDS011;66420;50.246;14.320;2023-12-04T03:39:50;20.77;;;7.13;;
77350;SDS011;66420;50.246;14.320;2023-12-04T03:42:35;15.38;;;7.80;;
77350;SDS011;66420;50.246;14.320;2023-12-04T03:45:20;19.40;;;7.97;;
77350;SDS011;66420;50.246;14.320;2023-12-04T03:48:05;15.27;;;7.28;;
77350;SDS011;66420;50.246;14.320;2023-12-04T03:50:50;19.23;;;8.05;;
77350;SDS011;66420;50.246;14.320;2023-12-04T03:53:34;15.80;;;7.22;;
77350;SDS011;66420;50.246;14.320;2023-12-04T03:56:20;16.85;;;7.32;;
77350;SDS011;66420;50.246;14.320;2023-12-04T03:59:05;20.75;;;7.45;;
77350;SDS011;66420;50.246;14.320;2023-12-04T04:01:50;16.20;;;6.80;;
77350;SDS011;66420;50.246;14.320;2023-12-04T04:04:35;18.85;;;7.20;;
77350;SDS011;66420;50.246;14.320;2023-12-04T04:07:19;20.13;;;7.63;;
77350;SDS011;66420;50.246;14.320;2023-12-04T04:10:04;15.82;;;7.20;;
77350;SDS011;66420;50.246;14.320;2023-12-04T04:12:50;15.18;;;6.90;;
77350;SDS011;66420;50.246;14.320;2023-12-04T04:15:35;18.13;;;7.40;;
77350;SDS011;66420;50.246;14.320;2023-12-04T04:18:19;19.30;;;7.90;;
77350;SDS011;66420;50.246;14.320;2023-12-04T04:21:04;19.35;;;6.80;;
77350;SDS011;66420;50.246;14.320;2023-12-04T04:23:48;14.38;;;6.85;;
77350;SDS011;66420;50.246;14.320;2023-12-04T04:26:33;24.00;;;8.93;;
77350;SDS011;66420;50.246;14.320;2023-12-04T04:29:18;20.63;;;8.60;;
77350;SDS011;66420;50.246;14.320;2023-12-04T04:32:02;18.73;;;7.30;;
77350;SDS011;66420;50.246;14.320;2023-12-04T04:34:47;21.05;;;8.27;;
77350;SDS011;66420;50.246;14.320;2023-12-04T04:37:32;20.40;;;8.30;;
77350;SDS011;66420;50.246;14.320;2023-12-04T04:40:17;19.10;;;7.57;;
77350;SDS011;66420;50.246;14.320;2023-12-04T04:43:01;19.70;;;7.95;;
77350;SDS011;66420;50.246;14.320;2023-12-04T04:45:46;25.52;;;8.13;;
77350;SDS011;66420;50.246;14.320;2023-12-04T04:48:31;17.33;;;8.30;;
77350;SDS011;66420;50.246;14.320;2023-12-04T04:51:15;24.02;;;8.05;;
77350;SDS011;66420;50.246;14.320;2023-12-04T04:54:00;27.90;;;9.70;;
77350;SDS011;66420;50.246;14.320;2023-12-04T04:56:45;25.73;;;9.23;;
77350;SDS011;66420;50.246;14.320;2023-12-04T04:59:30;20.38;;;8.85;;
77350;SDS011;66420;50.246;14.320;2023-12-04T05:02:16;23.33;;;9.13;;
77350;SDS011;66420;50.246;14.320;2023-12-04T05:05:02;19.63;;;8.00;;
77350;SDS011;66420;50.246;14.320;2023-12-04T05:07:48;20.30;;;8.55;;
77350;SDS011;66420;50.246;14.320;2023-12-04T05:10:33;18.70;;;8.32;;
77350;SDS011;66420;50.246;14.320;2023-12-04T05:13:17;25.52;;;9.65;;
77350;SDS011;66420;50.246;14.320;2023-12-04T05:16:02;29.30;;;9.52;;
77350;SDS011;66420;50.246;14.320;2023-12-04T05:18:47;28.55;;;10.40;;
77350;SDS011;66420;50.246;14.320;2023-12-04T05:21:32;22.52;;;8.50;;
77350;SDS011;66420;50.246;14.320;2023-12-04T05:24:17;22.92;;;9.07;;
77350;SDS011;66420;50.246;14.320;2023-12-04T05:27:02;27.95;;;10.65;;
77350;SDS011;66420;50.246;14.320;2023-12-04T05:29:46;23.15;;;9.45;;
77350;SDS011;66420;50.246;14.320;2023-12-04T05:32:31;22.08;;;8.98;;
77350;SDS011;66420;50.246;14.320;2023-12-04T05:35:16;24.08;;;8.20;;
77350;SDS011;66420;50.246;14.320;2023-12-04T05:38:01;26.42;;;10.45;;
77350;SDS011;66420;50.246;14.320;2023-12-04T05:40:46;27.88;;;9.18;;
77350;SDS011;66420;50.246;14.320;2023-12-04T05:43:31;26.33;;;9.00;;
77350;SDS011;66420;50.246;14.320;2023-12-04T05:46:16;23.50;;;9.70;;
77350;SDS011;66420;50.246;14.320;2023-12-04T05:49:00;23.50;;;9.68;;
77350;SDS011;66420;50.246;14.320;2023-12-04T05:51:45;23.50;;;9.65;;
77350;SDS011;66420;50.246;14.320;2023-12-04T05:54:30;26.52;;;10.32;;
77350;SDS011;66420;50.246;14.320;2023-12-04T05:57:15;25.90;;;8.88;;
77350;SDS011;66420;50.246;14.320;2023-12-04T06:00:00;26.30;;;9.63;;
77350;SDS011;66420;50.246;14.320;2023-12-04T06:02:45;32.30;;;13.30;;
77350;SDS011;66420;50.246;14.320;2023-12-04T06:05:29;36.42;;;13.45;;
77350;SDS011;66420;50.246;14.320;2023-12-04T06:08:14;43.47;;;15.80;;
77350;SDS011;66420;50.246;14.320;2023-12-04T06:10:59;45.28;;;14.82;;
77350;SDS011;66420;50.246;14.320;2023-12-04T06:13:44;41.88;;;14.13;;
77350;SDS011;66420;50.246;14.320;2023-12-04T06:16:30;35.30;;;11.13;;
77350;SDS011;66420;50.246;14.320;2023-12-04T06:19:15;40.92;;;12.70;;
77350;SDS011;66420;50.246;14.320;2023-12-04T06:21:59;43.65;;;14.82;;
77350;SDS011;66420;50.246;14.320;2023-12-04T06:24:44;30.85;;;12.00;;
77350;SDS011;66420;50.246;14.320;2023-12-04T06:27:29;28.48;;;10.77;;
77350;SDS011;66420;50.246;14.320;2023-12-04T06:30:14;35.60;;;12.48;;
77350;SDS011;66420;50.246;14.320;2023-12-04T06:32:59;32.10;;;12.18;;
77350;SDS011;66420;50.246;14.320;2023-12-04T06:35:44;66.22;;;15.30;;
77350;SDS011;66420;50.246;14.320;2023-12-04T06:38:31;30.95;;;12.43;;
77350;SDS011;66420;50.246;14.320;2023-12-04T06:41:18;64.70;;;14.00;;
77350;SDS011;66420;50.246;14.320;2023-12-04T06:44:06;49.60;;;12.75;;
77350;SDS011;66420;50.246;14.320;2023-12-04T06:46:52;28.20;;;11.70;;
77350;SDS011;66420;50.246;14.320;2023-12-04T06:49:37;35.47;;;12.82;;
77350;SDS011;66420;50.246;14.320;2023-12-04T06:52:22;37.60;;;12.57;;
77350;SDS011;66420;50.246;14.320;2023-12-04T06:55:07;44.00;;;13.48;;
77350;SDS011;66420;50.246;14.320;2023-12-04T06:57:52;27.13;;;10.57;;
77350;SDS011;66420;50.246;14.320;2023-12-04T07:00:37;27.13;;;11.73;;
77350;SDS011;66420;50.246;14.320;2023-12-04T07:03:21;30.58;;;12.85;;
77350;SDS011;66420;50.246;14.320;2023-12-04T07:06:06;37.03;;;12.38;;
77350;SDS011;66420;50.246;14.320;2023-12-04T07:08:51;38.40;;;13.68;;
77350;SDS011;66420;50.246;14.320;2023-12-04T07:11:35;32.65;;;11.52;;
77350;SDS011;66420;50.246;14.320;2023-12-04T07:14:20;38.50;;;13.80;;
77350;SDS011;66420;50.246;14.320;2023-12-04T07:17:05;40.28;;;14.75;;
77350;SDS011;66420;50.246;14.320;2023-12-04T07:19:50;36.17;;;13.43;;
77350;SDS011;66420;50.246;14.320;2023-12-04T07:22:35;34.88;;;12.40;;
77350;SDS011;66420;50.246;14.320;2023-12-04T07:25:20;38.28;;;14.43;;
77350;SDS011;66420;50.246;14.320;2023-12-04T07:28:05;29.70;;;12.95;;
77350;SDS011;66420;50.246;14.320;2023-12-04T07:30:49;31.85;;;13.18;;
77350;SDS011;66420;50.246;14.320;2023-12-04T07:33:34;29.38;;;12.27;;
77350;SDS011;66420;50.246;14.320;2023-12-04T07:36:19;27.67;;;11.40;;
77350;SDS011;66420;50.246;14.320;2023-12-04T07:39:04;28.48;;;12.15;;
77350;SDS011;66420;50.246;14.320;2023-12-04T07:41:50;28.77;;;10.43;;
77350;SDS011;66420;50.246;14.320;2023-12-04T07:44:35;32.70;;;12.02;;
77350;SDS011;66420;50.246;14.320;2023-12-04T07:47:20;37.33;;;12.90;;
77350;SDS011;66420;50.246;14.320;2023-12-04T07:50:04;44.05;;;14.52;;
77350;SDS011;66420;50.246;14.320;2023-12-04T07:52:50;48.97;;;13.82;;
77350;SDS011;66420;50.246;14.320;2023-12-04T07:55:34;40.17;;;13.18;;
77350;SDS011;66420;50.246;14.320;2023-12-04T07:58:19;43.78;;;15.77;;
77350;SDS011;66420;50.246;14.320;2023-12-04T08:01:04;52.28;;;15.23;;
77350;SDS011;66420;50.246;14.320;2023-12-04T08:06:26;34.75;;;12.70;;
77350;SDS011;66420;50.246;14.320;2023-12-04T08:09:14;51.63;;;16.17;;
77350;SDS011;66420;50.246;14.320;2023-12-04T08:12:18;50.72;;;15.13;;
77350;SDS011;66420;50.246;14.320;2023-12-04T08:15:03;44.45;;;14.77;;
77350;SDS011;66420;50.246;14.320;2023-12-04T08:18:09;34.60;;;12.85;;
77350;SDS011;66420;50.246;14.320;2023-12-04T08:20:54;39.30;;;13.82;;
77350;SDS011;66420;50.246;14.320;2023-12-04T08:23:40;34.17;;;13.18;;
77350;SDS011;66420;50.246;14.320;2023-12-04T08:26:25;41.08;;;13.30;;
77350;SDS011;66420;50.246;14.320;2023-12-04T08:29:30;36.75;;;12.82;;
77350;SDS011;66420;50.246;14.320;2023-12-04T08:32:35;34.10;;;12.80;;
77350;SDS011;66420;50.246;14.320;2023-12-04T08:35:43;36.83;;;11.48;;
77350;SDS011;66420;50.246;14.320;2023-12-04T08:38:57;39.97;;;12.82;;
77350;SDS011;66420;50.246;14.320;2023-12-04T08:41:44;33.88;;;11.70;;
77350;SDS011;66420;50.246;14.320;2023-12-04T08:44:31;35.97;;;11.52;;
77350;SDS011;66420;50.246;14.320;2023-12-04T08:47:15;35.47;;;11.82;;
77350;SDS011;66420;50.246;14.320;2023-12-04T08:50:00;35.00;;;12.73;;
77350;SDS011;66420;50.246;14.320;2023-12-04T08:52:45;26.63;;;11.05;;
77350;SDS011;66420;50.246;14.320;2023-12-04T08:55:30;31.23;;;11.50;;
77350;SDS011;66420;50.246;14.320;2023-12-04T08:58:15;26.23;;;11.13;;
77350;SDS011;66420;50.246;14.320;2023-12-04T09:01:00;25.52;;;10.95;;
77350;SDS011;66420;50.246;14.320;2023-12-04T09:03:44;32.33;;;11.43;;
77350;SDS011;66420;50.246;14.320;2023-12-04T09:06:29;31.23;;;11.00;;
77350;SDS011;66420;50.246;14.320;2023-12-04T09:09:14;34.25;;;11.75;;
77350;SDS011;66420;50.246;14.320;2023-12-04T09:12:00;28.90;;;10.80;;
77350;SDS011;66420;50.246;14.320;2023-12-04T09:14:45;35.10;;;12.73;;
77350;SDS011;66420;50.246;14.320;2023-12-04T09:17:29;26.20;;;10.20;;
77350;SDS011;66420;50.246;14.320;2023-12-04T09:20:14;26.27;;;10.57;;
77350;SDS011;66420;50.246;14.320;2023-12-04T09:22:59;29.17;;;11.70;;
77350;SDS011;66420;50.246;14.320;2023-12-04T09:25:44;28.48;;;10.82;;
77350;SDS011;66420;50.246;14.320;2023-12-04T09:28:29;32.35;;;11.45;;
77350;SDS011;66420;50.246;14.320;2023-12-04T09:31:14;24.52;;;10.15;;
77350;SDS011;66420;50.246;14.320;2023-12-04T09:33:59;28.27;;;11.95;;
77350;SDS011;66420;50.246;14.320;2023-12-04T09:36:44;35.22;;;12.35;;
77350;SDS011;66420;50.246;14.320;2023-12-04T09:39:29;32.60;;;10.93;;
77350;SDS011;66420;50.246;14.320;2023-12-04T09:42:14;29.70;;;11.15;;
77350;SDS011;66420;50.246;14.320;2023-12-04T09:44:59;28.63;;;11.02;;
77350;SDS011;66420;50.246;14.320;2023-12-04T09:47:47;26.98;;;11.38;;
77350;SDS011;66420;50.246;14.320;2023-12-04T09:50:32;29.60;;;11.75;;
77350;SDS011;66420;50.246;14.320;2023-12-04T09:53:17;30.42;;;11.55;;
77350;SDS011;66420;50.246;14.320;2023-12-04T09:56:03;31.75;;;11.00;;
77350;SDS011;66420;50.246;14.320;2023-12-04T09:58:49;32.05;;;12.30;;
77350;SDS011;66420;50.246;14.320;2023-12-04T10:01:41;34.17;;;11.40;;
77350;SDS011;66420;50.246;14.320;2023-12-04T10:04:27;29.20;;;11.57;;
77350;SDS011;66420;50.246;14.320;2023-12-04T10:07:12;25.50;;;11.35;;
77350;SDS011;66420;50.246;14.320;2023-12-04T10:09:56;30.42;;;10.85;;
77350;SDS011;66420;50.246;14.320;2023-12-04T10:12:42;26.50;;;10.25;;
77350;SDS011;66420;50.246;14.320;2023-12-04T10:15:27;33.38;;;11.90;;
77350;SDS011;66420;50.246;14.320;2023-12-04T10:18:25;30.13;;;10.35;;
77350;SDS011;66420;50.246;14.320;2023-12-04T10:21:17;31.15;;;12.20;;
77350;SDS011;66420;50.246;14.320;2023-12-04T10:24:03;29.80;;;10.98;;
77350;SDS011;66420;50.246;14.320;2023-12-04T10:26:51;28.48;;;12.38;;
77350;SDS011;66420;50.246;14.320;2023-12-04T10:29:46;34.03;;;12.32;;
77350;SDS011;66420;50.246;14.320;2023-12-04T10:32:35;31.75;;;12.13;;
77350;SDS011;66420;50.246;14.320;2023-12-04T10:35:23;28.05;;;10.07;;
77350;SDS011;66420;50.246;14.320;2023-12-04T10:38:08;34.47;;;12.45;;
77350;SDS011;66420;50.246;14.320;2023-12-04T10:40:53;32.60;;;13.27;;
77350;SDS011;66420;50.246;14.320;2023-12-04T10:43:42;29.75;;;12.45;;
77350;SDS011;66420;50.246;14.320;2023-12-04T10:46:31;29.35;;;12.05;;
77350;SDS011;66420;50.246;14.320;2023-12-04T10:49:18;33.78;;;13.30;;
77350;SDS011;66420;50.246;14.320;2023-12-04T10:52:03;28.05;;;12.10;;
77350;SDS011;66420;50.246;14.320;2023-12-04T10:54:50;34.45;;;12.23;;
77350;SDS011;66420;50.246;14.320;2023-12-04T10:57:37;31.55;;;11.52;;
77350;SDS011;66420;50.246;14.320;2023-12-04T11:00:23;30.40;;;12.20;;
77350;SDS011;66420;50.246;14.320;2023-12-04T11:03:09;34.78;;;13.32;;
77350;SDS011;66420;50.246;14.320;2023-12-04T11:05:56;28.33;;;11.88;;
77350;SDS011;66420;50.246;14.320;2023-12-04T11:08:44;34.58;;;12.73;;
77350;SDS011;66420;50.246;14.320;2023-12-04T11:11:34;33.15;;;13.07;;
77350;SDS011;66420;50.246;14.320;2023-12-04T11:14:21;32.90;;;12.85;;
77350;SDS011;66420;50.246;14.320;2023-12-04T11:17:08;32.10;;;13.13;;
77350;SDS011;66420;50.246;14.320;2023-12-04T11:20:01;35.70;;;13.20;;
77350;SDS011;66420;50.246;14.320;2023-12-04T11:22:52;33.53;;;13.02;;
77350;SDS011;66420;50.246;14.320;2023-12-04T11:25:39;36.72;;;13.70;;
77350;SDS011;66420;50.246;14.320;2023-12-04T11:28:24;36.15;;;11.63;;
77350;SDS011;66420;50.246;14.320;2023-12-04T11:31:11;29.92;;;11.68;;
77350;SDS011;66420;50.246;14.320;2023-12-04T11:34:03;37.53;;;13.15;;
77350;SDS011;66420;50.246;14.320;2023-12-04T11:36:48;37.65;;;13.52;;
77350;SDS011;66420;50.246;14.320;2023-12-04T11:39:34;33.58;;;12.52;;
77350;SDS011;66420;50.246;14.320;2023-12-04T11:42:23;32.92;;;13.40;;
77350;SDS011;66420;50.246;14.320;2023-12-04T11:45:09;30.85;;;12.18;;
77350;SDS011;66420;50.246;14.320;2023-12-04T11:47:54;30.08;;;11.73;;
77350;SDS011;66420;50.246;14.320;2023-12-04T11:50:43;29.45;;;11.18;;
77350;SDS011;66420;50.246;14.320;2023-12-04T11:53:28;26.77;;;12.05;;
77350;SDS011;66420;50.246;14.320;2023-12-04T11:56:13;26.95;;;11.73;;
77350;SDS011;66420;50.246;14.320;2023-12-04T11:59:02;28.88;;;12.07;;
77350;SDS011;66420;50.246;14.320;2023-12-04T12:01:55;29.70;;;12.02;;
77350;SDS011;66420;50.246;14.320;2023-12-04T12:04:44;28.13;;;11.23;;
77350;SDS011;66420;50.246;14.320;2023-12-04T12:07:31;30.27;;;11.13;;
77350;SDS011;66420;50.246;14.320;2023-12-04T12:10:17;30.77;;;12.10;;
77350;SDS011;66420;50.246;14.320;2023-12-04T12:13:01;31.55;;;13.27;;
77350;SDS011;66420;50.246;14.320;2023-12-04T12:15:47;35.55;;;13.85;;
77350;SDS011;66420;50.246;14.320;2023-12-04T12:18:34;35.75;;;13.45;;
77350;SDS011;66420;50.246;14.320;2023-12-04T12:21:20;31.00;;;12.50;;
77350;SDS011;66420;50.246;14.320;2023-12-04T12:24:08;32.33;;;11.77;;
77350;SDS011;66420;50.246;14.320;2023-12-04T12:26:56;31.63;;;12.65;;
77350;SDS011;66420;50.246;14.320;2023-12-04T12:29:41;32.58;;;12.93;;
77350;SDS011;66420;50.246;14.320;2023-12-04T12:32:26;29.45;;;12.40;;
77350;SDS011;66420;50.246;14.320;2023-12-04T12:35:12;31.25;;;11.70;;
77350;SDS011;66420;50.246;14.320;2023-12-04T12:37:57;31.75;;;13.27;;
77350;SDS011;66420;50.246;14.320;2023-12-04T12:40:42;32.95;;;13.48;;
77350;SDS011;66420;50.246;14.320;2023-12-04T12:43:27;31.13;;;11.65;;
77350;SDS011;66420;50.246;14.320;2023-12-04T12:46:12;35.50;;;13.00;;
77350;SDS011;66420;50.246;14.320;2023-12-04T12:48:58;27.52;;;12.05;;
77350;SDS011;66420;50.246;14.320;2023-12-04T12:51:44;30.52;;;11.82;;
77350;SDS011;66420;50.246;14.320;2023-12-04T12:54:30;31.85;;;11.95;;
77350;SDS011;66420;50.246;14.320;2023-12-04T12:57:17;26.73;;;11.45;;
77350;SDS011;66420;50.246;14.320;2023-12-04T13:00:01;41.00;;;13.13;;
77350;SDS011;66420;50.246;14.320;2023-12-04T13:02:52;31.85;;;12.52;;
77350;SDS011;66420;50.246;14.320;2023-12-04T13:05:37;32.08;;;12.60;;
77350;SDS011;66420;50.246;14.320;2023-12-04T13:08:22;27.25;;;11.23;;
77350;SDS011;66420;50.246;14.320;2023-12-04T13:11:08;31.02;;;11.95;;
77350;SDS011;66420;50.246;14.320;2023-12-04T13:13:52;27.13;;;11.80;;
77350;SDS011;66420;50.246;14.320;2023-12-04T13:16:38;26.48;;;11.02;;
77350;SDS011;66420;50.246;14.320;2023-12-04T13:19:24;25.60;;;11.25;;
77350;SDS011;66420;50.246;14.320;2023-12-04T13:22:09;40.85;;;15.20;;
77350;SDS011;66420;50.246;14.320;2023-12-04T13:24:54;40.55;;;14.23;;
77350;SDS011;66420;50.246;14.320;2023-12-04T13:27:39;44.85;;;15.63;;
77350;SDS011;66420;50.246;14.320;2023-12-04T13:30:24;40.85;;;15.02;;
77350;SDS011;66420;50.246;14.320;2023-12-04T13:33:10;46.45;;;16.20;;
77350;SDS011;66420;50.246;14.320;2023-12-04T13:35:55;44.72;;;15.85;;
77350;SDS011;66420;50.246;14.320;2023-12-04T13:38:40;43.38;;;16.98;;
77350;SDS011;66420;50.246;14.320;2023-12-04T13:41:25;51.63;;;17.33;;
77350;SDS011;66420;50.246;14.320;2023-12-04T13:44:28;43.75;;;17.23;;
77350;SDS011;66420;50.246;14.320;2023-12-04T13:47:13;48.15;;;17.05;;
77350;SDS011;66420;50.246;14.320;2023-12-04T13:50:00;48.97;;;17.88;;
77350;SDS011;66420;50.246;14.320;2023-12-04T13:52:45;46.97;;;16.75;;
77350;SDS011;66420;50.246;14.320;2023-12-04T13:55:39;52.67;;;17.20;;
77350;SDS011;66420;50.246;14.320;2023-12-04T13:58:44;48.63;;;19.00;;
77350;SDS011;66420;50.246;14.320;2023-12-04T14:01:29;47.60;;;18.48;;
77350;SDS011;66420;50.246;14.320;2023-12-04T14:04:14;48.70;;;18.33;;
77350;SDS011;66420;50.246;14.320;2023-12-04T14:06:59;52.05;;;19.00;;
77350;SDS011;66420;50.246;14.320;2023-12-04T14:09:44;57.70;;;18.23;;
77350;SDS011;66420;50.246;14.320;2023-12-04T14:12:29;53.08;;;19.67;;
77350;SDS011;66420;50.246;14.320;2023-12-04T14:15:14;59.53;;;20.23;;
77350;SDS011;66420;50.246;14.320;2023-12-04T14:18:00;60.25;;;21.48;;
77350;SDS011;66420;50.246;14.320;2023-12-04T14:20:44;56.40;;;20.05;;
77350;SDS011;66420;50.246;14.320;2023-12-04T14:23:30;52.33;;;20.80;;
77350;SDS011;66420;50.246;14.320;2023-12-04T14:26:14;54.83;;;19.38;;
77350;SDS011;66420;50.246;14.320;2023-12-04T14:28:59;58.67;;;19.85;;
77350;SDS011;66420;50.246;14.320;2023-12-04T14:31:45;55.40;;;20.70;;
77350;SDS011;66420;50.246;14.320;2023-12-04T14:34:30;64.05;;;22.05;;
77350;SDS011;66420;50.246;14.320;2023-12-04T14:37:16;51.90;;;20.08;;
77350;SDS011;66420;50.246;14.320;2023-12-04T14:40:02;72.65;;;23.98;;
77350;SDS011;66420;50.246;14.320;2023-12-04T14:42:49;62.00;;;21.50;;
77350;SDS011;66420;50.246;14.320;2023-12-04T14:45:34;70.53;;;25.75;;
77350;SDS011;66420;50.246;14.320;2023-12-04T14:48:20;62.58;;;24.63;;
77350;SDS011;66420;50.246;14.320;2023-12-04T14:51:06;57.25;;;21.92;;
77350;SDS011;66420;50.246;14.320;2023-12-04T14:53:51;57.03;;;21.13;;
77350;SDS011;66420;50.246;14.320;2023-12-04T14:56:55;54.97;;;20.60;;
77350;SDS011;66420;50.246;14.320;2023-12-04T14:59:58;60.80;;;20.80;;
77350;SDS011;66420;50.246;14.320;2023-12-04T15:02:43;67.85;;;20.20;;
77350;SDS011;66420;50.246;14.320;2023-12-04T15:05:46;60.20;;;21.85;;
77350;SDS011;66420;50.246;14.320;2023-12-04T15:08:50;58.97;;;19.85;;
77350;SDS011;66420;50.246;14.320;2023-12-04T15:11:50;62.13;;;21.58;;
77350;SDS011;66420;50.246;14.320;2023-12-04T15:14:49;52.58;;;19.05;;
77350;SDS011;66420;50.246;14.320;2023-12-04T15:17:45;52.78;;;19.98;;
77350;SDS011;66420;50.246;14.320;2023-12-04T15:20:35;58.97;;;19.05;;
77350;SDS011;66420;50.246;14.320;2023-12-04T15:23:22;62.95;;;21.10;;
77350;SDS011;66420;50.246;14.320;2023-12-04T15:26:07;60.80;;;20.58;;
77350;SDS011;66420;50.246;14.320;2023-12-04T15:28:52;60.95;;;20.60;;
77350;SDS011;66420;50.246;14.320;2023-12-04T15:31:37;60.42;;;20.73;;
77350;SDS011;66420;50.246;14.320;2023-12-04T15:34:22;50.97;;;18.38;;
77350;SDS011;66420;50.246;14.320;2023-12-04T15:37:07;54.85;;;18.63;;
77350;SDS011;66420;50.246;14.320;2023-12-04T15:39:53;55.95;;;19.27;;
77350;SDS011;66420;50.246;14.320;2023-12-04T15:42:37;51.58;;;18.23;;
77350;SDS011;66420;50.246;14.320;2023-12-04T15:45:22;64.05;;;21.30;;
77350;SDS011;66420;50.246;14.320;2023-12-04T15:48:07;59.22;;;21.00;;
77350;SDS011;66420;50.246;14.320;2023-12-04T15:50:54;59.40;;;20.15;;
77350;SDS011;66420;50.246;14.320;2023-12-04T15:53:39;47.17;;;17.92;;
77350;SDS011;66420;50.246;14.320;2023-12-04T15:56:25;54.67;;;17.83;;
77350;SDS011;66420;50.246;14.320;2023-12-04T15:59:09;57.78;;;18.83;;
77350;SDS011;66420;50.246;14.320;2023-12-04T16:01:55;52.10;;;18.90;;
77350;SDS011;66420;50.246;14.320;2023-12-04T16:04:39;57.13;;;20.65;;
77350;SDS011;66420;50.246;14.320;2023-12-04T16:07:25;40.15;;;17.40;;